Stuart, Oklahoma
Current Conditions -  °F | °C
As of 3:53 PM on Thursday 27 Nov 2014 (Local Time) from KMLC Reporting Station
Few Clouds Few Clouds  
Wind Chill: 52°   Ceiling: Unl
Heat Index: 52°   Visibility: 10mi
Dew Point: 17°   Wind: 5mph
Humidity: 25%   Direction: 110°ESE
Pressure: 30.41"   Gusts: NA
Location:  34.9°N, 96.1°W
Report Text: KMLC 272153Z AUTO 11004KT 10SM FEW090 FEW110 11/M08 A3041 RMK AO2 SLP299 T01111083
Loading
Personal Weather Stations






























Interactive Weather Map New forecast layout! Learn more

10-Day Weather Forecast

Advertisements
Track Severe Weather on mobile